createdAt,value
2022-11-08T00:01:20.430Z,12.00
2022-11-08T00:04:10.116Z,12.10
2022-11-08T00:07:15.524Z,12.00
2022-11-08T00:10:20.891Z,12.00
2022-11-08T00:13:26.260Z,12.10
2022-11-08T00:16:15.322Z,12.00
2022-11-08T00:19:03.066Z,12.00
2022-11-08T00:21:50.872Z,12.00
2022-11-08T00:24:38.956Z,12.10
2022-11-08T00:27:26.744Z,12.00
2022-11-08T00:30:14.592Z,12.10
2022-11-08T00:33:03.788Z,12.10
2022-11-08T00:35:51.517Z,12.10
2022-11-08T00:38:41.887Z,12.00
2022-11-08T00:41:29.610Z,12.00
2022-11-08T00:44:17.665Z,12.00
2022-11-08T00:47:05.890Z,12.00
2022-11-08T00:49:54.955Z,11.90
2022-11-08T00:52:42.661Z,11.80
2022-11-08T00:55:30.372Z,11.80
2022-11-08T00:58:19.427Z,11.80
2022-11-08T01:01:10.385Z,11.80
2022-11-08T01:03:58.132Z,11.80
2022-11-08T01:06:47.219Z,11.80
2022-11-08T01:09:34.958Z,11.90
2022-11-08T01:12:22.692Z,11.80
2022-11-08T01:15:10.583Z,11.80
2022-11-08T01:17:58.394Z,11.90
2022-11-08T01:20:47.070Z,11.90
2022-11-08T01:23:36.192Z,11.90
2022-11-08T01:26:25.495Z,11.90
2022-11-08T01:29:13.276Z,11.90
2022-11-08T01:32:00.993Z,11.90
2022-11-08T01:34:48.727Z,11.90
2022-11-08T01:37:36.416Z,11.90
2022-11-08T01:40:25.739Z,11.90
2022-11-08T01:43:34.964Z,11.80
2022-11-08T01:46:33.571Z,11.80
2022-11-08T01:49:48.681Z,11.80
2022-11-08T01:52:36.842Z,11.80
2022-11-08T01:55:27.140Z,11.80
2022-11-08T01:58:16.656Z,11.80
2022-11-08T02:01:04.805Z,11.80
2022-11-08T02:03:52.598Z,11.80
2022-11-08T02:06:40.490Z,11.70
2022-11-08T02:09:29.007Z,11.70
2022-11-08T02:12:21.395Z,11.70
2022-11-08T02:15:09.953Z,11.80
2022-11-08T02:17:57.715Z,11.80
2022-11-08T02:20:49.631Z,11.70
2022-11-08T02:23:46.515Z,11.80
2022-11-08T02:26:35.381Z,11.70
2022-11-08T02:29:24.440Z,11.70
2022-11-08T02:32:12.582Z,11.70
2022-11-08T02:35:00.432Z,11.70
2022-11-08T02:37:48.626Z,11.70
2022-11-08T02:40:47.514Z,11.70
2022-11-08T02:43:35.377Z,11.70
2022-11-08T02:46:23.089Z,11.70
2022-11-08T02:49:10.988Z,11.70
2022-11-08T02:51:58.714Z,11.70
2022-11-08T02:54:46.454Z,11.70
2022-11-08T02:57:35.529Z,11.70
2022-11-08T03:00:23.264Z,11.70
2022-11-08T03:03:11.014Z,11.70
2022-11-08T03:05:58.908Z,11.70
2022-11-08T03:08:46.629Z,11.70
2022-11-08T03:11:34.414Z,11.70
2022-11-08T03:14:23.714Z,11.70
2022-11-08T03:17:11.547Z,11.70
2022-11-08T03:19:59.310Z,11.60
2022-11-08T03:22:47.261Z,11.70
2022-11-08T03:25:35.115Z,11.70
2022-11-08T03:28:23.449Z,11.70
2022-11-08T03:31:12.917Z,11.60
2022-11-08T03:34:00.638Z,11.60
2022-11-08T03:36:48.621Z,11.70
2022-11-08T03:39:36.438Z,11.70
2022-11-08T03:42:24.136Z,11.60
2022-11-08T03:45:12.215Z,11.60
2022-11-08T03:48:01.446Z,11.60
2022-11-08T03:50:49.253Z,11.60
2022-11-08T03:53:36.970Z,11.60
2022-11-08T03:56:24.734Z,11.60
2022-11-08T03:59:12.763Z,11.60
2022-11-08T04:02:00.517Z,11.50
2022-11-08T04:04:49.797Z,11.60
2022-11-08T04:07:37.702Z,11.60
2022-11-08T04:10:25.442Z,11.50
2022-11-08T04:13:30.791Z,11.60
2022-11-08T04:16:18.619Z,11.50
2022-11-08T04:19:24.099Z,11.50
2022-11-08T04:22:13.197Z,11.50
2022-11-08T04:25:00.923Z,11.60
2022-11-08T04:27:48.604Z,11.50
2022-11-08T04:30:36.559Z,11.50
2022-11-08T04:33:24.634Z,11.50
2022-11-08T04:36:15.803Z,11.50
2022-11-08T04:39:05.268Z,11.50
2022-11-08T04:41:56.402Z,11.50
2022-11-08T04:44:46.957Z,11.50
2022-11-08T04:47:39.408Z,11.50
2022-11-08T04:50:28.883Z,11.50
2022-11-08T04:53:16.787Z,11.40
2022-11-08T04:56:07.065Z,11.50
2022-11-08T04:58:55.838Z,11.50
2022-11-08T05:01:43.664Z,11.50
2022-11-08T05:04:31.540Z,11.50
2022-11-08T05:07:20.328Z,11.50
2022-11-08T05:10:08.421Z,11.40
2022-11-08T05:12:58.601Z,11.40
2022-11-08T05:15:46.319Z,11.40
2022-11-08T05:18:34.818Z,11.40
2022-11-08T05:21:41.247Z,11.40
2022-11-08T05:24:29.450Z,11.40
2022-11-08T05:27:17.183Z,11.40
2022-11-08T05:30:07.198Z,11.30
2022-11-08T05:32:54.913Z,11.30
2022-11-08T05:35:42.606Z,11.30
2022-11-08T05:38:30.842Z,11.20
2022-11-08T05:41:19.328Z,11.20
2022-11-08T05:44:07.066Z,11.20
2022-11-08T05:46:56.135Z,11.20
2022-11-08T05:49:43.880Z,11.20
2022-11-08T05:52:31.590Z,11.20
2022-11-08T05:55:19.307Z,11.20
2022-11-08T05:58:07.200Z,11.20
2022-11-08T06:01:00.633Z,11.20
2022-11-08T06:03:49.799Z,11.20
2022-11-08T06:06:37.509Z,11.10
2022-11-08T06:09:25.227Z,11.10
2022-11-08T06:12:12.966Z,11.10
2022-11-08T06:15:00.746Z,11.10
2022-11-08T06:17:48.453Z,11.00
2022-11-08T06:20:37.674Z,11.00
2022-11-08T06:23:25.395Z,11.00
2022-11-08T06:26:13.464Z,11.00
2022-11-08T06:29:01.686Z,10.90
2022-11-08T06:31:49.396Z,10.80
2022-11-08T06:34:37.146Z,10.80
2022-11-08T06:37:26.438Z,10.90
2022-11-08T06:40:14.447Z,10.90
2022-11-08T06:43:02.410Z,10.80
2022-11-08T06:45:50.125Z,10.80
2022-11-08T06:48:37.809Z,10.80
2022-11-08T06:51:25.512Z,10.80
2022-11-08T06:54:17.768Z,10.80
2022-11-08T06:57:05.741Z,10.80
2022-11-08T06:59:53.475Z,10.80
2022-11-08T07:02:41.292Z,10.80
2022-11-08T07:05:30.009Z,10.80
2022-11-08T07:08:23.265Z,10.80
2022-11-08T07:11:13.188Z,10.80
2022-11-08T07:14:00.893Z,10.80
2022-11-08T07:16:49.000Z,10.80
2022-11-08T07:19:36.765Z,10.90
2022-11-08T07:22:24.432Z,10.90
2022-11-08T07:25:12.145Z,10.80
2022-11-08T07:28:02.195Z,10.90
2022-11-08T07:30:49.981Z,10.90
2022-11-08T07:33:37.682Z,10.90
2022-11-08T07:36:25.403Z,10.80
2022-11-08T07:39:13.252Z,10.80
2022-11-08T07:42:00.993Z,10.90
2022-11-08T07:44:50.045Z,10.90
2022-11-08T07:47:38.346Z,10.90
2022-11-08T07:50:26.078Z,10.90
2022-11-08T07:53:13.963Z,10.90
2022-11-08T07:56:01.725Z,10.90
2022-11-08T07:58:49.485Z,10.80
2022-11-08T08:01:38.704Z,10.80
2022-11-08T08:04:26.423Z,10.80
2022-11-08T08:07:14.167Z,10.80
2022-11-08T08:10:02.009Z,10.80
2022-11-08T08:12:49.733Z,10.80
2022-11-08T08:15:37.497Z,10.90
2022-11-08T08:18:26.554Z,10.90
2022-11-08T08:21:14.328Z,11.00
2022-11-08T08:24:02.042Z,11.00
2022-11-08T08:26:49.758Z,11.00
2022-11-08T08:29:37.513Z,11.00
2022-11-08T08:32:28.253Z,11.10
2022-11-08T08:35:20.390Z,11.10
2022-11-08T08:38:08.211Z,11.20
2022-11-08T08:40:55.986Z,11.30
2022-11-08T08:43:43.713Z,11.40
2022-11-08T08:46:31.427Z,11.50
2022-11-08T08:49:19.162Z,11.60
2022-11-08T08:52:08.232Z,11.60
2022-11-08T08:54:55.998Z,11.70
2022-11-08T08:57:47.334Z,11.70
2022-11-08T09:03:42.846Z,11.90
2022-11-08T09:06:30.674Z,11.90
2022-11-08T09:09:19.867Z,11.90
2022-11-08T09:12:13.509Z,12.00
2022-11-08T09:15:02.267Z,12.00
2022-11-08T09:17:50.127Z,12.10
2022-11-08T09:20:38.293Z,12.10
2022-11-08T09:23:26.050Z,12.20
2022-11-08T09:26:15.328Z,12.20
2022-11-08T09:29:03.123Z,12.30
2022-11-08T09:31:50.973Z,12.30
2022-11-08T09:34:38.757Z,12.40
2022-11-08T09:37:26.761Z,12.50
2022-11-08T09:43:15.333Z,12.60
2022-11-08T09:46:03.221Z,12.70
2022-11-08T09:48:51.852Z,12.80
2022-11-08T09:51:40.169Z,12.80
2022-11-08T09:54:30.518Z,12.90
2022-11-08T09:57:21.605Z,13.00
2022-11-08T10:00:13.868Z,13.00
2022-11-08T10:03:02.866Z,13.10
2022-11-08T10:05:57.347Z,13.20
2022-11-08T10:08:48.046Z,13.20
2022-11-08T10:11:41.499Z,13.30
2022-11-08T10:14:48.957Z,13.30
2022-11-08T10:17:52.891Z,13.40
2022-11-08T10:20:48.577Z,13.40
2022-11-08T10:23:43.269Z,13.50
2022-11-08T10:26:34.739Z,13.60
2022-11-08T10:29:23.555Z,13.70
2022-11-08T10:32:14.907Z,13.70
2022-11-08T10:35:07.937Z,13.70
2022-11-08T10:37:56.502Z,13.80
2022-11-08T10:40:45.989Z,13.90
2022-11-08T10:43:35.240Z,14.00
2022-11-08T10:46:34.846Z,14.00
2022-11-08T10:49:24.321Z,14.10
2022-11-08T10:52:19.601Z,14.20
2022-11-08T10:55:07.640Z,14.20
2022-11-08T10:57:55.453Z,14.20
2022-11-08T11:00:43.169Z,14.30
2022-11-08T11:03:30.911Z,14.30
2022-11-08T11:06:23.250Z,14.30
2022-11-08T11:09:20.314Z,14.40
2022-11-08T11:12:08.808Z,14.50
2022-11-08T11:14:57.317Z,14.50
2022-11-08T11:17:45.768Z,14.60
2022-11-08T11:20:34.150Z,14.60
2022-11-08T11:23:21.914Z,14.60
2022-11-08T11:26:18.610Z,14.60
2022-11-08T11:29:08.329Z,14.60
2022-11-08T11:31:56.425Z,14.50
2022-11-08T11:34:46.210Z,14.60
2022-11-08T11:37:37.259Z,14.60
2022-11-08T11:40:28.076Z,14.60
2022-11-08T11:43:21.186Z,14.70
2022-11-08T11:46:13.004Z,14.70
2022-11-08T11:49:01.433Z,14.80
2022-11-08T11:51:52.433Z,14.80
2022-11-08T11:54:41.811Z,14.90
2022-11-08T11:57:35.268Z,14.90
2022-11-08T12:00:24.634Z,14.80
2022-11-08T12:03:19.581Z,14.80
2022-11-08T12:06:15.736Z,14.90
2022-11-08T12:09:14.052Z,14.90
2022-11-08T12:12:08.542Z,15.00
2022-11-08T12:15:00.124Z,15.00
2022-11-08T12:17:58.372Z,15.00
2022-11-08T12:20:49.491Z,15.10
2022-11-08T12:23:41.825Z,15.10
2022-11-08T12:26:43.150Z,15.10
2022-11-08T12:29:32.265Z,15.20
2022-11-08T12:32:26.872Z,15.20
2022-11-08T12:35:20.677Z,15.20
2022-11-08T12:38:15.653Z,15.30
2022-11-08T12:41:07.659Z,15.30
2022-11-08T12:44:09.609Z,15.30
2022-11-08T12:47:03.414Z,15.30
2022-11-08T12:49:55.626Z,15.30
2022-11-08T12:52:48.257Z,15.30
2022-11-08T12:55:37.310Z,15.20
2022-11-08T12:58:33.913Z,15.20
2022-11-08T13:01:24.626Z,15.10
2022-11-08T13:04:20.883Z,15.10
2022-11-08T13:07:14.194Z,15.20
2022-11-08T13:10:03.471Z,15.10
2022-11-08T13:13:01.087Z,15.10
2022-11-08T13:16:03.839Z,15.10
2022-11-08T13:18:54.110Z,15.10
2022-11-08T13:21:43.125Z,15.10
2022-11-08T13:24:44.514Z,15.00
2022-11-08T13:27:34.084Z,15.00
2022-11-08T13:30:42.899Z,15.00
2022-11-08T13:33:31.521Z,15.00
2022-11-08T13:36:26.119Z,15.00
2022-11-08T13:39:21.726Z,15.00
2022-11-08T13:42:24.567Z,15.00
2022-11-08T13:45:24.598Z,15.00
2022-11-08T13:48:27.595Z,15.00
2022-11-08T13:51:30.545Z,15.00
2022-11-08T13:54:37.129Z,15.00
2022-11-08T13:57:39.836Z,15.00
2022-11-08T14:00:36.621Z,14.90
2022-11-08T14:03:43.095Z,14.90
2022-11-08T14:06:35.792Z,14.80
2022-11-08T14:09:33.261Z,14.80
2022-11-08T14:12:25.184Z,14.70
2022-11-08T14:15:17.666Z,14.70
2022-11-08T14:18:06.778Z,14.70
2022-11-08T14:20:55.160Z,14.60
2022-11-08T14:23:46.216Z,14.60
2022-11-08T14:26:34.058Z,14.50
2022-11-08T14:29:23.347Z,14.50
2022-11-08T14:32:18.663Z,14.40
2022-11-08T14:35:13.834Z,14.40
2022-11-08T14:38:01.764Z,14.30
2022-11-08T14:40:53.003Z,14.30
2022-11-08T14:43:43.756Z,14.30
2022-11-08T14:46:32.725Z,14.20
2022-11-08T14:49:21.710Z,14.20
2022-11-08T14:52:15.196Z,14.10
2022-11-08T14:55:04.982Z,14.10
2022-11-08T14:57:54.261Z,14.00
2022-11-08T15:00:42.907Z,14.00
2022-11-08T15:03:32.092Z,14.00
2022-11-08T15:06:20.043Z,14.00
2022-11-08T15:09:08.269Z,13.90
2022-11-08T15:11:57.707Z,13.90
2022-11-08T15:14:49.444Z,13.80
2022-11-08T15:17:38.011Z,13.80
2022-11-08T15:20:26.470Z,13.80
2022-11-08T15:23:24.264Z,13.70
2022-11-08T15:26:19.530Z,13.70
2022-11-08T15:29:08.218Z,13.70
2022-11-08T15:32:01.395Z,13.60
2022-11-08T15:34:53.806Z,13.60
2022-11-08T15:37:42.628Z,13.60
2022-11-08T15:40:31.983Z,13.60
2022-11-08T15:43:40.265Z,13.50
2022-11-08T15:46:29.501Z,13.50
2022-11-08T15:49:20.944Z,13.40
2022-11-08T15:52:08.820Z,13.50
2022-11-08T15:54:56.746Z,13.40
2022-11-08T15:57:45.429Z,13.30
2022-11-08T16:00:36.304Z,13.30
2022-11-08T16:03:24.334Z,13.40
2022-11-08T16:06:14.018Z,13.20
2022-11-08T16:09:01.914Z,13.20
2022-11-08T16:11:50.772Z,13.20
2022-11-08T16:14:38.686Z,13.20
2022-11-08T16:17:26.552Z,13.20
2022-11-08T16:20:18.561Z,13.20
2022-11-08T16:23:08.520Z,13.10
2022-11-08T16:25:57.522Z,13.20
2022-11-08T16:28:45.687Z,13.10
2022-11-08T16:31:33.642Z,13.10
2022-11-08T16:34:21.727Z,13.10
2022-11-08T16:37:10.366Z,13.00
2022-11-08T16:39:59.816Z,13.10
2022-11-08T16:42:48.333Z,13.00
2022-11-08T16:46:03.169Z,13.00
2022-11-08T16:48:46.513Z,12.90
2022-11-08T16:51:34.489Z,12.90
2022-11-08T16:54:24.997Z,12.90
2022-11-08T16:57:33.470Z,12.90
2022-11-08T17:00:22.338Z,12.90
2022-11-08T17:03:13.020Z,12.90
2022-11-08T17:06:01.314Z,12.90
2022-11-08T17:08:49.235Z,12.90
2022-11-08T17:11:39.665Z,12.90
2022-11-08T17:14:28.984Z,12.80
2022-11-08T17:17:16.900Z,12.90
2022-11-08T17:20:05.122Z,12.80
2022-11-08T17:22:53.505Z,12.80
2022-11-08T17:25:43.010Z,12.80
2022-11-08T17:28:31.058Z,12.90
2022-11-08T17:31:20.444Z,12.80
2022-11-08T17:34:08.287Z,12.90
2022-11-08T17:36:56.133Z,12.80
2022-11-08T17:39:44.075Z,12.80
2022-11-08T17:42:34.186Z,12.90
2022-11-08T17:45:25.257Z,12.90
2022-11-08T17:48:14.735Z,12.90
2022-11-08T17:51:02.796Z,12.90
2022-11-08T17:53:50.657Z,12.90
2022-11-08T17:56:38.516Z,12.80
2022-11-08T17:59:26.627Z,12.80
2022-11-08T18:02:14.949Z,12.80
2022-11-08T18:05:04.278Z,13.00
2022-11-08T18:07:52.190Z,12.80
2022-11-08T18:10:40.300Z,12.90
2022-11-08T18:13:29.138Z,12.90
2022-11-08T18:16:17.983Z,12.90
2022-11-08T18:19:05.868Z,12.80
2022-11-08T18:21:55.153Z,12.80
2022-11-08T18:24:46.062Z,12.90
2022-11-08T18:27:38.723Z,12.80
2022-11-08T18:30:26.587Z,12.90
2022-11-08T18:33:14.445Z,12.90
2022-11-08T18:36:05.915Z,12.90
2022-11-08T18:38:56.553Z,12.90
2022-11-08T18:41:44.421Z,12.90
2022-11-08T18:44:32.284Z,12.90
2022-11-08T18:47:20.162Z,13.00
2022-11-08T18:50:09.636Z,13.00
2022-11-08T18:53:02.258Z,13.00
2022-11-08T18:55:52.806Z,13.00
2022-11-08T18:58:40.784Z,13.00
2022-11-08T19:01:28.747Z,13.00
2022-11-08T19:04:17.033Z,13.00
2022-11-08T19:07:05.255Z,13.00
2022-11-08T19:09:53.327Z,13.00
2022-11-08T19:12:42.562Z,13.00
2022-11-08T19:15:30.433Z,13.00
2022-11-08T19:18:18.332Z,13.00
2022-11-08T19:21:07.376Z,12.90
2022-11-08T19:23:57.724Z,13.00
2022-11-08T19:26:45.638Z,12.90
2022-11-08T19:29:34.906Z,13.00
2022-11-08T19:32:23.223Z,12.90
2022-11-08T19:35:11.060Z,12.90
2022-11-08T19:38:00.817Z,12.90
2022-11-08T19:40:48.908Z,12.90
2022-11-08T19:43:38.466Z,12.80
2022-11-08T19:46:29.050Z,12.90
2022-11-08T19:49:18.118Z,12.80
2022-11-08T19:52:06.246Z,12.80
2022-11-08T19:54:54.114Z,12.80
2022-11-08T19:57:42.025Z,12.80
2022-11-08T20:00:30.128Z,12.80
2022-11-08T20:03:19.355Z,12.80
2022-11-08T20:06:08.289Z,12.70
2022-11-08T20:08:57.567Z,12.80
2022-11-08T20:11:45.627Z,12.70
2022-11-08T20:14:33.711Z,12.80
2022-11-08T20:17:21.771Z,12.80
2022-11-08T20:20:11.643Z,12.70
2022-11-08T20:22:59.682Z,12.70
2022-11-08T20:25:47.597Z,12.70
2022-11-08T20:28:36.323Z,12.80
2022-11-08T20:31:29.539Z,12.70
2022-11-08T20:34:18.750Z,12.70
2022-11-08T20:37:08.207Z,12.60
2022-11-08T20:39:56.098Z,12.60
2022-11-08T20:42:43.929Z,12.60
2022-11-08T20:45:31.834Z,12.60
2022-11-08T20:48:20.032Z,12.60
2022-11-08T20:51:08.537Z,12.60
2022-11-08T20:53:58.322Z,12.60
2022-11-08T20:56:46.349Z,12.50
2022-11-08T20:59:34.260Z,12.50
2022-11-08T21:02:22.479Z,12.50
2022-11-08T21:05:10.561Z,12.50
2022-11-08T21:08:17.313Z,12.50
2022-11-08T21:11:08.607Z,12.40
2022-11-08T21:13:57.011Z,12.40
2022-11-08T21:17:14.666Z,12.50
2022-11-08T21:19:52.864Z,12.50
2022-11-08T21:22:40.717Z,12.40
2022-11-08T21:25:28.594Z,12.40
2022-11-08T21:28:18.427Z,12.40
2022-11-08T21:31:07.079Z,12.40
2022-11-08T21:33:55.050Z,12.40
2022-11-08T21:36:42.908Z,12.50
2022-11-08T21:39:30.773Z,12.50
2022-11-08T21:42:18.884Z,12.50
2022-11-08T21:45:09.220Z,12.50
2022-11-08T21:47:57.223Z,12.40
2022-11-08T21:50:45.120Z,12.50
2022-11-08T21:53:33.006Z,12.50
2022-11-08T21:56:20.954Z,12.50
2022-11-08T21:59:08.847Z,12.50
2022-11-08T22:01:58.073Z,12.50
2022-11-08T22:04:45.910Z,12.50
2022-11-08T22:07:33.918Z,12.50
2022-11-08T22:10:21.794Z,12.50
2022-11-08T22:13:09.689Z,12.50
2022-11-08T22:15:57.539Z,12.60
2022-11-08T22:21:54.639Z,12.60
2022-11-08T22:24:42.469Z,12.60
2022-11-08T22:27:30.319Z,12.60
2022-11-08T22:30:18.178Z,12.50
2022-11-08T22:33:06.040Z,12.60
2022-11-08T22:35:55.275Z,12.60
2022-11-08T22:38:43.124Z,12.60
2022-11-08T22:41:31.476Z,12.60
2022-11-08T22:44:20.078Z,12.60
2022-11-08T22:47:07.936Z,12.50
2022-11-08T22:49:55.786Z,12.60
2022-11-08T22:52:45.043Z,12.60
2022-11-08T22:55:33.225Z,12.60
2022-11-08T22:58:21.268Z,12.50
2022-11-08T23:01:11.735Z,12.50
2022-11-08T23:03:59.635Z,12.60
2022-11-08T23:06:47.580Z,12.60
2022-11-08T23:09:36.774Z,12.50
2022-11-08T23:12:42.397Z,12.50
2022-11-08T23:15:49.613Z,12.50
2022-11-08T23:18:37.446Z,12.50
2022-11-08T23:21:42.765Z,12.50
2022-11-08T23:24:31.656Z,12.50
2022-11-08T23:27:38.450Z,12.50
2022-11-08T23:30:43.973Z,12.50
2022-11-08T23:33:31.818Z,12.50
2022-11-08T23:36:20.449Z,12.50
2022-11-08T23:39:08.479Z,12.50
2022-11-08T23:42:13.999Z,12.50
2022-11-08T23:45:03.292Z,12.50
2022-11-08T23:47:52.467Z,12.50
2022-11-08T23:50:40.316Z,12.50
2022-11-08T23:53:29.497Z,12.50
2022-11-08T23:56:20.381Z,12.60
2022-11-08T23:59:08.297Z,12.60
